createdAt,value
2017-01-23T00:00:15.429Z,1010.78
2017-01-23T00:00:56.070Z,1010.79
2017-01-23T00:01:36.837Z,1010.8
2017-01-23T00:02:17.559Z,1010.78
2017-01-23T00:02:58.201Z,1010.79
2017-01-23T00:03:38.840Z,1010.8
2017-01-23T00:04:19.520Z,1010.79
2017-01-23T00:05:00.233Z,1010.82
2017-01-23T00:05:40.872Z,1010.75
2017-01-23T00:06:21.611Z,1010.77
2017-01-23T00:07:02.277Z,1010.75
2017-01-23T00:07:42.910Z,1010.77
2017-01-23T00:08:23.629Z,1010.78
2017-01-23T00:09:04.381Z,1010.75
2017-01-23T00:09:45.026Z,1010.75
2017-01-23T00:10:25.648Z,1010.76
2017-01-23T00:11:06.336Z,1010.81
2017-01-23T00:11:46.975Z,1010.75
2017-01-23T00:12:27.599Z,1010.76
2017-01-23T00:13:08.267Z,1010.75
2017-01-23T00:13:48.982Z,1010.75
2017-01-23T00:14:29.612Z,1010.73
2017-01-23T00:15:10.323Z,1010.7
2017-01-23T00:15:50.998Z,1010.76
2017-01-23T00:16:31.637Z,1010.69
2017-01-23T00:17:12.364Z,1010.72
2017-01-23T00:17:53.043Z,1010.69
2017-01-23T00:18:33.764Z,1010.72
2017-01-23T00:19:14.317Z,1010.71
2017-01-23T00:19:55.041Z,1010.7
2017-01-23T00:20:35.668Z,1010.72
2017-01-23T00:21:16.300Z,1010.75
2017-01-23T00:21:56.936Z,1010.71
2017-01-23T00:22:37.622Z,1010.69
2017-01-23T00:23:18.193Z,1010.69
2017-01-23T00:23:58.919Z,1010.68
2017-01-23T00:24:39.635Z,1010.63
2017-01-23T00:25:20.290Z,1010.69
2017-01-23T00:26:01.009Z,1010.69
2017-01-23T00:26:41.685Z,1010.68
2017-01-23T00:27:22.342Z,1010.6
2017-01-23T00:28:03.058Z,1010.65
2017-01-23T00:28:43.787Z,1010.61
2017-01-23T00:29:24.485Z,1010.63
2017-01-23T00:30:05.134Z,1010.66
2017-01-23T00:30:45.872Z,1010.64
2017-01-23T00:31:26.628Z,1010.58
2017-01-23T00:32:07.276Z,1010.58
2017-01-23T00:32:48.550Z,1010.62
2017-01-23T00:33:29.199Z,1010.62
2017-01-23T00:34:09.842Z,1010.58
2017-01-23T00:34:50.532Z,1010.6
2017-01-23T00:35:31.203Z,1010.59
2017-01-23T00:36:11.831Z,1010.65
2017-01-23T00:36:52.530Z,1010.6
2017-01-23T00:37:33.229Z,1010.65
2017-01-23T00:38:13.870Z,1010.6
2017-01-23T00:38:54.538Z,1010.56
2017-01-23T00:39:35.200Z,1010.62
2017-01-23T00:40:15.824Z,1010.58
2017-01-23T00:40:56.459Z,1010.57
2017-01-23T00:41:37.127Z,1010.58
2017-01-23T00:42:17.751Z,1010.55
2017-01-23T00:42:58.449Z,1010.62
2017-01-23T00:43:39.087Z,1010.54
2017-01-23T00:44:19.724Z,1010.58
2017-01-23T00:45:00.409Z,1010.56
2017-01-23T00:45:41.044Z,1010.56
2017-01-23T00:46:21.688Z,1010.51
2017-01-23T00:47:02.409Z,1010.5
2017-01-23T00:47:43.107Z,1010.52
2017-01-23T00:48:23.741Z,1010.49
2017-01-23T00:49:04.457Z,1010.5
2017-01-23T00:49:45.142Z,1010.45
2017-01-23T00:50:25.786Z,1010.48
2017-01-23T00:51:06.430Z,1010.51
2017-01-23T00:51:47.189Z,1010.48
2017-01-23T00:52:27.819Z,1010.5
2017-01-23T00:53:08.454Z,1010.49
2017-01-23T00:53:49.109Z,1010.42
2017-01-23T00:54:29.739Z,1010.48
2017-01-23T00:55:10.368Z,1010.45
2017-01-23T00:55:51.050Z,1010.44
2017-01-23T00:56:31.757Z,1010.47
2017-01-23T00:57:12.388Z,1010.42
2017-01-23T00:57:53.108Z,1010.43
2017-01-23T00:58:33.814Z,1010.4
2017-01-23T00:59:14.451Z,1010.45
2017-01-23T00:59:55.132Z,1010.43
2017-01-23T01:00:35.762Z,1010.39
2017-01-23T01:01:16.405Z,1010.35
2017-01-23T01:01:57.106Z,1010.33
2017-01-23T01:02:37.824Z,1010.33
2017-01-23T01:03:18.453Z,1010.34
2017-01-23T01:03:59.085Z,1010.34
2017-01-23T01:04:39.815Z,1010.31
2017-01-23T01:05:20.508Z,1010.35
2017-01-23T01:06:01.140Z,1010.32
2017-01-23T01:06:41.780Z,1010.31
2017-01-23T01:07:22.448Z,1010.31
2017-01-23T01:08:03.079Z,1010.28
2017-01-23T01:08:43.818Z,1010.26
2017-01-23T01:09:24.527Z,1010.28
2017-01-23T01:10:05.153Z,1010.31
2017-01-23T01:10:45.818Z,1010.26
2017-01-23T01:11:26.453Z,1010.27
2017-01-23T01:12:07.097Z,1010.26
2017-01-23T01:12:47.777Z,1010.21
2017-01-23T01:13:28.406Z,1010.22
2017-01-23T01:14:09.088Z,1010.23
2017-01-23T01:14:49.703Z,1010.22
2017-01-23T01:15:30.388Z,1010.19
2017-01-23T01:16:11.023Z,1010.21
2017-01-23T01:16:51.658Z,1010.21
2017-01-23T01:17:32.304Z,1010.19
2017-01-23T01:18:12.939Z,1010.18
2017-01-23T01:18:53.576Z,1010.2
2017-01-23T01:19:34.240Z,1010.17
2017-01-23T01:20:14.881Z,1010.14
2017-01-23T01:20:55.595Z,1010.16
2017-01-23T01:21:36.322Z,1010.17
2017-01-23T01:22:16.986Z,1010.17
2017-01-23T01:22:57.635Z,1010.19
2017-01-23T01:23:38.330Z,1010.23
2017-01-23T01:24:18.988Z,1010.17
2017-01-23T01:24:59.617Z,1010.21
2017-01-23T01:25:40.293Z,1010.22
2017-01-23T01:26:21.033Z,1010.24
2017-01-23T01:27:01.662Z,1010.18
2017-01-23T01:27:42.308Z,1010.18
2017-01-23T01:28:22.985Z,1010.16
2017-01-23T01:29:03.621Z,1010.17
2017-01-23T01:29:44.340Z,1010.17
2017-01-23T01:30:25.055Z,1010.08
2017-01-23T01:31:05.735Z,1010.13
2017-01-23T01:31:46.366Z,1010.13
2017-01-23T01:32:26.993Z,1010.13
2017-01-23T01:33:07.666Z,1010.13
2017-01-23T01:33:48.294Z,1010.16
2017-01-23T01:34:28.945Z,1010.17
2017-01-23T01:35:09.595Z,1010.18
2017-01-23T01:35:50.211Z,1010.2
2017-01-23T01:36:30.908Z,1010.16
2017-01-23T01:37:11.537Z,1010.15
2017-01-23T01:37:52.171Z,1010.14
2017-01-23T01:38:32.846Z,1010.16
2017-01-23T01:39:13.550Z,1010.16
2017-01-23T01:39:54.189Z,1010.13
2017-01-23T01:40:34.959Z,1010.15
2017-01-23T01:41:15.581Z,1010.2
2017-01-23T01:41:56.226Z,1010.22
2017-01-23T01:42:36.924Z,1010.21
2017-01-23T01:43:17.614Z,1010.15
2017-01-23T01:43:58.261Z,1010.17
2017-01-23T01:44:38.946Z,1010.19
2017-01-23T01:45:19.664Z,1010.17
2017-01-23T01:46:00.325Z,1010.19
2017-01-23T01:46:40.966Z,1010.14
2017-01-23T01:47:21.715Z,1010.15
2017-01-23T01:48:02.393Z,1010.17
2017-01-23T01:48:43.039Z,1010.2
2017-01-23T01:49:23.724Z,1010.14
2017-01-23T01:50:04.355Z,1010.17
2017-01-23T01:50:44.996Z,1010.17
2017-01-23T01:51:25.622Z,1010.14
2017-01-23T01:52:06.278Z,1010.14
2017-01-23T01:52:46.906Z,1010.15
2017-01-23T01:53:27.619Z,1010.15
2017-01-23T01:54:08.270Z,1010.18
2017-01-23T01:54:48.910Z,1010.21
2017-01-23T01:55:29.648Z,1010.18
2017-01-23T01:56:10.276Z,1010.09
2017-01-23T01:56:50.909Z,1010.14
2017-01-23T01:57:31.556Z,1010.13
2017-01-23T01:58:12.240Z,1010.12
2017-01-23T01:58:52.895Z,1010.13
2017-01-23T01:59:33.593Z,1010.14
2017-01-23T02:00:14.365Z,1010.14
2017-01-23T02:00:55.073Z,1010.15
2017-01-23T02:01:35.705Z,1010.13
2017-01-23T02:02:16.456Z,1010.16
2017-01-23T02:02:57.098Z,1010.13
2017-01-23T02:03:37.784Z,1010.12
2017-01-23T02:04:18.424Z,1010.12
2017-01-23T02:04:59.093Z,1010.12
2017-01-23T02:05:39.788Z,1010.14
2017-01-23T02:06:20.419Z,1010.15
2017-01-23T02:07:01.046Z,1010.1
2017-01-23T02:07:41.741Z,1010.11
2017-01-23T02:08:22.373Z,1010.14
2017-01-23T02:09:03.003Z,1010.12
2017-01-23T02:09:43.651Z,1010.1
2017-01-23T02:10:24.293Z,1010.11
2017-01-23T02:11:05.007Z,1010.1
2017-01-23T02:11:45.684Z,1010.08
2017-01-23T02:12:26.321Z,1010.07
2017-01-23T02:13:06.973Z,1010.06
2017-01-23T02:13:47.683Z,1010.1
2017-01-23T02:14:28.342Z,1010.09
2017-01-23T02:15:09.020Z,1010.09
2017-01-23T02:15:49.749Z,1010.09
2017-01-23T02:16:30.381Z,1010.11
2017-01-23T02:17:11.016Z,1010.1
2017-01-23T02:17:51.719Z,1010.12
2017-01-23T02:18:32.418Z,1010.08
2017-01-23T02:19:13.056Z,1010.09
2017-01-23T02:19:53.755Z,1010.05
2017-01-23T02:20:34.525Z,1010.11
2017-01-23T02:21:15.174Z,1010.08
2017-01-23T02:21:55.828Z,1010.08
2017-01-23T02:22:36.562Z,1010.13
2017-01-23T02:23:17.222Z,1010.15
2017-01-23T02:23:57.848Z,1010.1
2017-01-23T02:24:38.544Z,1010.09
2017-01-23T02:25:19.167Z,1010.07
2017-01-23T02:25:59.806Z,1010.1
2017-01-23T02:26:40.520Z,1010.1
2017-01-23T02:27:21.178Z,1010.11
2017-01-23T02:28:01.809Z,1010.08
2017-01-23T02:28:42.493Z,1010.13
2017-01-23T02:29:23.123Z,1010.15
2017-01-23T02:30:03.752Z,1010.09
2017-01-23T02:30:44.470Z,1010.11
2017-01-23T02:31:25.127Z,1010.16
2017-01-23T02:32:05.758Z,1010.15
2017-01-23T02:32:46.450Z,1010.15
2017-01-23T02:33:27.087Z,1010.16
2017-01-23T02:34:07.715Z,1010.12
2017-01-23T02:34:48.342Z,1010.12
2017-01-23T02:35:29.085Z,1010.12
2017-01-23T02:36:09.721Z,1010.11
2017-01-23T02:36:50.381Z,1010.16
2017-01-23T02:37:31.047Z,1010.13
2017-01-23T02:38:11.698Z,1010.13
2017-01-23T02:38:52.315Z,1010.15
2017-01-23T02:39:32.978Z,1010.09
2017-01-23T02:40:13.608Z,1010.17
2017-01-23T02:40:54.313Z,1010.19
2017-01-23T02:41:34.958Z,1010.17
2017-01-23T02:42:15.678Z,1010.13
2017-01-23T02:42:56.241Z,1010.14
2017-01-23T02:43:36.952Z,1010.13
2017-01-23T02:44:17.650Z,1010.14
2017-01-23T02:44:58.285Z,1010.12
2017-01-23T02:45:39.000Z,1010.08
2017-01-23T02:46:19.625Z,1010.11
2017-01-23T02:47:00.269Z,1010.12
2017-01-23T02:47:40.988Z,1010.1
2017-01-23T02:48:21.692Z,1010.12
2017-01-23T02:49:02.318Z,1010.07
2017-01-23T02:49:43.021Z,1010.08
2017-01-23T02:50:23.650Z,1010.13
2017-01-23T02:51:04.284Z,1010.06
2017-01-23T02:51:44.989Z,1010.09
2017-01-23T02:52:25.702Z,1010.09
2017-01-23T02:53:06.398Z,1010.14
2017-01-23T02:53:47.036Z,1010.12
2017-01-23T02:54:27.762Z,1010.11
2017-01-23T02:55:08.521Z,1010.13
2017-01-23T02:55:49.150Z,1010.08
2017-01-23T02:56:29.783Z,1010.1
2017-01-23T02:57:10.470Z,1010.15
2017-01-23T02:57:51.099Z,1010.07
2017-01-23T02:58:31.730Z,1010.11
2017-01-23T02:59:12.399Z,1010.13
2017-01-23T02:59:53.036Z,1010.18
2017-01-23T03:00:33.672Z,1010.1
2017-01-23T03:01:14.326Z,1010.09
2017-01-23T03:01:54.963Z,1010.08
2017-01-23T03:02:35.650Z,1010.05
2017-01-23T03:03:16.285Z,1010.07
2017-01-23T03:03:56.918Z,1010.09
2017-01-23T03:04:37.576Z,1010.11
2017-01-23T03:05:18.253Z,1010.09
2017-01-23T03:05:58.901Z,1010.06
2017-01-23T03:06:39.534Z,1010.09
2017-01-23T03:07:20.291Z,1010.13
2017-01-23T03:08:01.514Z,1010.12
2017-01-23T03:08:42.253Z,1010.13
2017-01-23T03:09:22.879Z,1010.16
2017-01-23T03:10:03.516Z,1010.08
2017-01-23T03:10:44.241Z,1010.1
2017-01-23T03:11:24.871Z,1010.11
2017-01-23T03:12:05.497Z,1010.08
2017-01-23T03:12:46.165Z,1010.09
2017-01-23T03:13:26.799Z,1010.06
2017-01-23T03:14:07.434Z,1010.06
2017-01-23T03:14:48.092Z,1010.07
2017-01-23T03:15:28.790Z,1010.07
2017-01-23T03:16:09.407Z,1010.11
2017-01-23T03:16:50.148Z,1010.11
2017-01-23T03:17:30.915Z,1010.08
2017-01-23T03:18:11.567Z,1010.09
2017-01-23T03:18:52.228Z,1010.1
2017-01-23T03:19:32.865Z,1010.12
2017-01-23T03:20:13.579Z,1010.1
2017-01-23T03:20:54.146Z,1010.15
2017-01-23T03:21:34.924Z,1010.13
2017-01-23T03:22:15.561Z,1010.11
2017-01-23T03:22:56.192Z,1010.12
2017-01-23T03:23:36.855Z,1010.09
2017-01-23T03:24:17.531Z,1010.07
2017-01-23T03:24:58.165Z,1010.11
2017-01-23T03:25:38.897Z,1010.15
2017-01-23T03:26:19.586Z,1010.1
2017-01-23T03:27:00.216Z,1010.11
2017-01-23T03:27:40.937Z,1010.1
2017-01-23T03:28:21.583Z,1010.18
2017-01-23T03:29:02.220Z,1010.11
2017-01-23T03:29:42.902Z,1010.15
2017-01-23T03:30:23.659Z,1010.14
2017-01-23T03:31:04.294Z,1010.14
2017-01-23T03:31:44.931Z,1010.15
2017-01-23T03:32:25.593Z,1010.15
2017-01-23T03:33:06.319Z,1010.12
2017-01-23T03:33:46.948Z,1010.18
2017-01-23T03:34:27.608Z,1010.15
2017-01-23T03:35:08.247Z,1010.17
2017-01-23T03:35:48.875Z,1010.15
2017-01-23T03:36:29.599Z,1010.11
2017-01-23T03:37:10.260Z,1010.15
2017-01-23T03:37:50.885Z,1010.12
2017-01-23T03:38:31.561Z,1010.1
2017-01-23T03:39:12.220Z,1010.07
2017-01-23T03:39:52.860Z,1010.13
2017-01-23T03:40:33.569Z,1010.12
2017-01-23T03:41:14.193Z,1010.14
2017-01-23T03:41:54.831Z,1010.13
2017-01-23T03:42:35.556Z,1010.16
2017-01-23T03:43:16.260Z,1010.18
2017-01-23T03:43:56.944Z,1010.11
2017-01-23T03:44:37.587Z,1010.12
2017-01-23T03:45:18.216Z,1010.12
2017-01-23T03:45:58.884Z,1010.13
2017-01-23T03:46:39.524Z,1010.11
2017-01-23T03:47:20.161Z,1010.13
2017-01-23T03:48:01.531Z,1010.11
2017-01-23T03:48:42.155Z,1010.13
2017-01-23T03:49:22.828Z,1010.12
2017-01-23T03:50:03.465Z,1010.09
2017-01-23T03:50:44.191Z,1010.12
2017-01-23T03:51:24.963Z,1010.12
2017-01-23T03:52:05.661Z,1010.14
2017-01-23T03:52:46.265Z,1010.15
2017-01-23T03:53:27.003Z,1010.14
2017-01-23T03:54:07.646Z,1010.11
2017-01-23T03:54:48.279Z,1010.17
2017-01-23T03:55:28.956Z,1010.15
2017-01-23T03:56:09.679Z,1010.14
2017-01-23T03:56:50.321Z,1010.15
2017-01-23T03:57:30.962Z,1010.2
2017-01-23T03:58:11.594Z,1010.19
2017-01-23T03:58:52.227Z,1010.12
2017-01-23T03:59:32.941Z,1010.17
2017-01-23T04:00:13.703Z,1010.2
2017-01-23T04:00:54.376Z,1010.19
2017-01-23T04:01:35.010Z,1010.2
2017-01-23T04:02:15.656Z,1010.23
2017-01-23T04:02:56.293Z,1010.17
2017-01-23T04:03:36.960Z,1010.17
2017-01-23T04:04:17.688Z,1010.2
2017-01-23T04:04:58.443Z,1010.2
2017-01-23T04:05:39.075Z,1010.2
2017-01-23T04:06:19.717Z,1010.18
2017-01-23T04:07:00.357Z,1010.17
2017-01-23T04:07:40.982Z,1010.16
2017-01-23T04:08:21.677Z,1010.18
2017-01-23T04:09:02.382Z,1010.17
2017-01-23T04:09:43.011Z,1010.12
2017-01-23T04:10:23.726Z,1010.22
2017-01-23T04:11:04.374Z,1010.17
2017-01-23T04:11:45.004Z,1010.15
2017-01-23T04:12:25.702Z,1010.17
2017-01-23T04:13:06.444Z,1010.11
2017-01-23T04:13:47.092Z,1010.18
2017-01-23T04:14:27.729Z,1010.13
2017-01-23T04:15:08.373Z,1010.13
2017-01-23T04:15:49.018Z,1010.13
2017-01-23T04:16:29.655Z,1010.16
2017-01-23T04:17:10.333Z,1010.17
2017-01-23T04:17:51.034Z,1010.16
2017-01-23T04:18:31.671Z,1010.12
2017-01-23T04:19:12.405Z,1010.17
2017-01-23T04:19:53.059Z,1010.12
2017-01-23T04:20:33.698Z,1010.14
2017-01-23T04:21:14.427Z,1010.15
2017-01-23T04:21:55.050Z,1010.1
2017-01-23T04:22:35.675Z,1010.11
2017-01-23T04:23:16.339Z,1010.14
2017-01-23T04:23:57.060Z,1010.13
2017-01-23T04:24:37.774Z,1010.13
2017-01-23T04:25:18.378Z,1010.11
2017-01-23T04:25:59.080Z,1010.08
2017-01-23T04:26:39.780Z,1010.04
2017-01-23T04:27:20.421Z,1010.09
2017-01-23T04:28:01.139Z,1010.1
2017-01-23T04:28:41.815Z,1010.1
2017-01-23T04:29:22.444Z,1010.09
2017-01-23T04:30:03.113Z,1010.03
2017-01-23T04:30:43.732Z,1010.06
2017-01-23T04:31:24.368Z,1010.08
2017-01-23T04:32:05.035Z,1010.08
2017-01-23T04:32:45.668Z,1010.11
2017-01-23T04:33:26.302Z,1010.08
2017-01-23T04:34:06.958Z,1010.13
2017-01-23T04:34:47.704Z,1010.14
2017-01-23T04:35:28.335Z,1010.09
2017-01-23T04:36:08.993Z,1010.08
2017-01-23T04:36:49.660Z,1010.07
2017-01-23T04:37:30.309Z,1010.08
2017-01-23T04:38:10.977Z,1010.1
2017-01-23T04:38:51.665Z,1010.06
2017-01-23T04:39:32.362Z,1010.07
2017-01-23T04:40:13.006Z,1010.1
2017-01-23T04:40:53.660Z,1010.1
2017-01-23T04:41:34.308Z,1010.09
2017-01-23T04:42:14.927Z,1010.1
2017-01-23T04:42:55.560Z,1010.13
2017-01-23T04:43:36.218Z,1010.11
2017-01-23T04:44:16.860Z,1010.11
2017-01-23T04:44:57.489Z,1010.11
2017-01-23T04:45:38.142Z,1010.08
2017-01-23T04:46:18.788Z,1010.08
2017-01-23T04:46:59.476Z,1010.14
2017-01-23T04:47:40.123Z,1010.09
2017-01-23T04:48:20.762Z,1010.08
2017-01-23T04:49:01.437Z,1010.05
2017-01-23T04:49:42.124Z,1010.08
2017-01-23T04:50:22.764Z,1010.06
2017-01-23T04:51:03.402Z,1010.11
2017-01-23T04:51:44.076Z,1010.13
2017-01-23T04:52:24.706Z,1010.07
2017-01-23T04:53:05.428Z,1010.11
2017-01-23T04:53:46.093Z,1010.13
2017-01-23T04:54:26.723Z,1010.13
2017-01-23T04:55:07.373Z,1010.12
2017-01-23T04:55:48.006Z,1010.13
2017-01-23T04:56:28.627Z,1010.1
2017-01-23T04:57:09.333Z,1010.08
2017-01-23T04:57:50.015Z,1010.14
2017-01-23T04:58:30.646Z,1010.14
2017-01-23T04:59:11.299Z,1010.13
2017-01-23T04:59:52.019Z,1010.13
2017-01-23T05:00:32.735Z,1010.15
2017-01-23T05:01:13.286Z,1010.2
2017-01-23T05:01:53.932Z,1010.2
2017-01-23T05:02:34.559Z,1010.22
2017-01-23T05:03:15.300Z,1010.26
2017-01-23T05:03:55.973Z,1010.26
2017-01-23T05:04:36.645Z,1010.27
2017-01-23T05:05:17.285Z,1010.28
2017-01-23T05:05:57.926Z,1010.32
2017-01-23T05:06:38.608Z,1010.34
2017-01-23T05:07:19.237Z,1010.32
2017-01-23T05:07:59.923Z,1010.32
2017-01-23T05:08:40.567Z,1010.32
2017-01-23T05:09:21.194Z,1010.37
2017-01-23T05:10:01.987Z,1010.32
2017-01-23T05:10:42.696Z,1010.34
2017-01-23T05:11:23.412Z,1010.34
2017-01-23T05:12:04.057Z,1010.34
2017-01-23T05:12:44.730Z,1010.32
2017-01-23T05:13:25.396Z,1010.3
2017-01-23T05:14:06.047Z,1010.31
2017-01-23T05:14:46.674Z,1010.29
2017-01-23T05:15:27.371Z,1010.33
2017-01-23T05:16:08.010Z,1010.35
2017-01-23T05:16:48.715Z,1010.36
2017-01-23T05:17:29.350Z,1010.33
2017-01-23T05:18:09.984Z,1010.35
2017-01-23T05:18:50.646Z,1010.31
2017-01-23T05:19:31.267Z,1010.4
2017-01-23T05:20:11.895Z,1010.36
2017-01-23T05:20:52.562Z,1010.39
2017-01-23T05:21:33.225Z,1010.42
2017-01-23T05:22:13.856Z,1010.41
2017-01-23T05:22:54.587Z,1010.42
2017-01-23T05:23:35.284Z,1010.44
2017-01-23T05:24:15.917Z,1010.44
2017-01-23T05:24:56.612Z,1010.38
2017-01-23T05:25:37.242Z,1010.43
2017-01-23T05:26:17.879Z,1010.43
2017-01-23T05:26:58.552Z,1010.44
2017-01-23T05:27:39.184Z,1010.47
2017-01-23T05:28:19.825Z,1010.42
2017-01-23T05:29:00.539Z,1010.43
2017-01-23T05:29:41.263Z,1010.44
2017-01-23T05:30:21.905Z,1010.46
2017-01-23T05:31:02.548Z,1010.41
2017-01-23T05:31:43.242Z,1010.46
2017-01-23T05:32:23.935Z,1010.43
2017-01-23T05:33:04.564Z,1010.39
2017-01-23T05:33:45.294Z,1010.44
2017-01-23T05:34:25.935Z,1010.41
2017-01-23T05:35:06.569Z,1010.38
2017-01-23T05:35:47.289Z,1010.46
2017-01-23T05:36:27.917Z,1010.44
2017-01-23T05:37:08.549Z,1010.49
2017-01-23T05:37:49.236Z,1010.5
2017-01-23T05:38:29.934Z,1010.51
2017-01-23T05:39:10.629Z,1010.51
2017-01-23T05:39:51.248Z,1010.43
2017-01-23T05:40:31.983Z,1010.51
2017-01-23T05:41:12.607Z,1010.53
2017-01-23T05:41:53.241Z,1010.5
2017-01-23T05:42:33.901Z,1010.49
2017-01-23T05:43:14.620Z,1010.51
2017-01-23T05:43:55.259Z,1010.56
2017-01-23T05:44:35.984Z,1010.49
2017-01-23T05:45:16.624Z,1010.51
2017-01-23T05:45:57.255Z,1010.53
2017-01-23T05:46:37.945Z,1010.54
2017-01-23T05:47:18.589Z,1010.54
2017-01-23T05:47:59.221Z,1010.56
2017-01-23T05:48:39.971Z,1010.53
2017-01-23T05:49:20.702Z,1010.58
2017-01-23T05:50:01.418Z,1010.54
2017-01-23T05:50:42.054Z,1010.61
2017-01-23T05:51:22.688Z,1010.6
2017-01-23T05:52:03.380Z,1010.63
2017-01-23T05:52:44.020Z,1010.6
2017-01-23T05:53:24.765Z,1010.6
2017-01-23T05:54:05.429Z,1010.64
2017-01-23T05:54:46.056Z,1010.65
2017-01-23T05:55:26.747Z,1010.65
2017-01-23T05:56:07.386Z,1010.67
2017-01-23T05:56:48.024Z,1010.64
2017-01-23T05:57:29.616Z,1010.67
2017-01-23T05:58:10.355Z,1010.62
2017-01-23T05:58:50.991Z,1010.66
2017-01-23T05:59:31.643Z,1010.67
2017-01-23T06:00:12.274Z,1010.68
2017-01-23T06:00:52.910Z,1010.68
2017-01-23T06:01:33.570Z,1010.69
2017-01-23T06:02:14.232Z,1010.7
2017-01-23T06:02:54.857Z,1010.69
2017-01-23T06:03:35.498Z,1010.66
2017-01-23T06:04:16.208Z,1010.72
2017-01-23T06:04:56.899Z,1010.65
2017-01-23T06:05:37.545Z,1010.64
2017-01-23T06:06:18.253Z,1010.68
2017-01-23T06:06:58.930Z,1010.7
2017-01-23T06:07:39.559Z,1010.69
2017-01-23T06:08:20.284Z,1010.69
2017-01-23T06:09:00.994Z,1010.7
2017-01-23T06:09:41.623Z,1010.72
2017-01-23T06:10:22.284Z,1010.67
2017-01-23T06:11:02.995Z,1010.65
2017-01-23T06:11:43.643Z,1010.66
2017-01-23T06:12:24.260Z,1010.69
2017-01-23T06:13:04.916Z,1010.7
2017-01-23T06:13:45.543Z,1010.71
2017-01-23T06:14:26.283Z,1010.69
2017-01-23T06:15:06.955Z,1010.68
2017-01-23T06:15:47.663Z,1010.68
2017-01-23T06:16:28.313Z,1010.69
2017-01-23T06:17:09.020Z,1010.7
2017-01-23T06:17:49.795Z,1010.71
2017-01-23T06:18:30.420Z,1010.71
2017-01-23T06:19:11.065Z,1010.68
2017-01-23T06:19:51.727Z,1010.69
2017-01-23T06:20:32.392Z,1010.66
2017-01-23T06:21:13.068Z,1010.68
2017-01-23T06:21:53.751Z,1010.68
2017-01-23T06:22:34.451Z,1010.7
2017-01-23T06:23:15.090Z,1010.71
2017-01-23T06:23:55.724Z,1010.7
2017-01-23T06:24:36.423Z,1010.66
2017-01-23T06:25:17.049Z,1010.65
2017-01-23T06:25:57.768Z,1010.69
2017-01-23T06:26:38.540Z,1010.65
2017-01-23T06:27:19.167Z,1010.67
2017-01-23T06:27:59.826Z,1010.69
2017-01-23T06:28:40.476Z,1010.7
2017-01-23T06:29:21.099Z,1010.67
2017-01-23T06:30:01.750Z,1010.66
2017-01-23T06:30:42.435Z,1010.69
2017-01-23T06:31:23.170Z,1010.74
2017-01-23T06:32:03.708Z,1010.69
2017-01-23T06:32:44.401Z,1010.72
2017-01-23T06:33:25.070Z,1010.73
2017-01-23T06:34:05.704Z,1010.75
2017-01-23T06:34:46.418Z,1010.72
2017-01-23T06:35:27.154Z,1010.75
2017-01-23T06:36:07.758Z,1010.78
2017-01-23T06:36:48.452Z,1010.73
2017-01-23T06:37:29.085Z,1010.75
2017-01-23T06:38:09.711Z,1010.74
2017-01-23T06:38:50.456Z,1010.72
2017-01-23T06:39:31.148Z,1010.73
2017-01-23T06:40:11.783Z,1010.74
2017-01-23T06:40:52.438Z,1010.78
2017-01-23T06:41:33.144Z,1010.75
2017-01-23T06:42:13.836Z,1010.78
2017-01-23T06:42:54.468Z,1010.79
2017-01-23T06:43:35.152Z,1010.81
2017-01-23T06:44:15.813Z,1010.8
2017-01-23T06:44:56.450Z,1010.81
2017-01-23T06:45:37.076Z,1010.82
2017-01-23T06:46:17.788Z,1010.88
2017-01-23T06:46:58.431Z,1010.9
2017-01-23T06:47:39.156Z,1010.84
2017-01-23T06:48:19.915Z,1010.85
2017-01-23T06:49:00.553Z,1010.89
2017-01-23T06:49:41.247Z,1010.91
2017-01-23T06:50:21.942Z,1010.96
2017-01-23T06:51:02.683Z,1010.9
2017-01-23T06:51:43.329Z,1010.9
2017-01-23T06:52:24.052Z,1010.95
2017-01-23T06:53:04.705Z,1010.95
2017-01-23T06:53:45.335Z,1010.96
2017-01-23T06:54:26.006Z,1010.95
2017-01-23T06:55:06.646Z,1010.94
2017-01-23T06:55:47.279Z,1010.98
2017-01-23T06:56:27.913Z,1010.95
2017-01-23T06:57:08.643Z,1010.95
2017-01-23T06:57:49.272Z,1010.96
2017-01-23T06:58:29.926Z,1010.93
2017-01-23T06:59:10.617Z,1010.96
2017-01-23T06:59:51.256Z,1011
2017-01-23T07:00:31.888Z,1010.94
2017-01-23T07:01:12.547Z,1010.96
2017-01-23T07:01:53.173Z,1010.97
2017-01-23T07:02:33.901Z,1011
2017-01-23T07:03:14.534Z,1010.99
2017-01-23T07:03:55.206Z,1011.02
2017-01-23T07:04:35.819Z,1011
2017-01-23T07:05:16.583Z,1011.03
2017-01-23T07:05:57.224Z,1011.05
2017-01-23T07:06:37.863Z,1011.03
2017-01-23T07:07:18.510Z,1011.02
2017-01-23T07:07:59.147Z,1011.04
2017-01-23T07:08:39.779Z,1011.06
2017-01-23T07:09:20.453Z,1011.11
2017-01-23T07:10:01.084Z,1011.01
2017-01-23T07:10:41.727Z,1011.06
2017-01-23T07:11:22.392Z,1011.07
2017-01-23T07:12:03.026Z,1011.04
2017-01-23T07:12:43.657Z,1011.02
2017-01-23T07:13:24.329Z,1011.03
2017-01-23T07:14:05.034Z,1011.04
2017-01-23T07:14:45.656Z,1011.08
2017-01-23T07:15:26.365Z,1011.05
2017-01-23T07:16:07.128Z,1011.04
2017-01-23T07:16:47.762Z,1011.06
2017-01-23T07:17:28.501Z,1011.05
2017-01-23T07:18:09.206Z,1011.03
2017-01-23T07:18:49.857Z,1011.03
2017-01-23T07:19:30.486Z,1011.03
2017-01-23T07:20:11.142Z,1011.08
2017-01-23T07:20:51.847Z,1011.08
2017-01-23T07:21:32.478Z,1011.09
2017-01-23T07:22:13.102Z,1011.13
2017-01-23T07:22:53.790Z,1011.12
2017-01-23T07:23:34.447Z,1011.11
2017-01-23T07:24:15.160Z,1011.13
2017-01-23T07:24:55.840Z,1011.14
2017-01-23T07:25:36.469Z,1011.12
2017-01-23T07:26:17.165Z,1011.16
2017-01-23T07:26:57.807Z,1011.16
2017-01-23T07:27:38.434Z,1011.16
2017-01-23T07:28:19.084Z,1011.19
2017-01-23T07:28:59.735Z,1011.2
2017-01-23T07:29:40.376Z,1011.2
2017-01-23T07:30:21.011Z,1011.18
2017-01-23T07:31:01.723Z,1011.16
2017-01-23T07:31:42.446Z,1011.21
2017-01-23T07:32:22.996Z,1011.19
2017-01-23T07:33:03.652Z,1011.2
2017-01-23T07:33:44.359Z,1011.24
2017-01-23T07:34:24.930Z,1011.23
2017-01-23T07:35:05.589Z,1011.24
2017-01-23T07:35:46.250Z,1011.25
2017-01-23T07:36:26.914Z,1011.23
2017-01-23T07:37:07.576Z,1011.19
2017-01-23T07:37:48.337Z,1011.19
2017-01-23T07:38:28.979Z,1011.23
2017-01-23T07:39:09.680Z,1011.28
2017-01-23T07:39:50.315Z,1011.21
2017-01-23T07:40:30.960Z,1011.22
2017-01-23T07:41:11.635Z,1011.21
2017-01-23T07:41:52.371Z,1011.2
2017-01-23T07:42:33.007Z,1011.22
2017-01-23T07:43:13.645Z,1011.22
2017-01-23T07:43:54.338Z,1011.23
2017-01-23T07:44:34.981Z,1011.2
2017-01-23T07:45:15.662Z,1011.23
2017-01-23T07:45:56.418Z,1011.2
2017-01-23T07:46:37.124Z,1011.23
2017-01-23T07:47:17.757Z,1011.21
2017-01-23T07:47:58.429Z,1011.19
2017-01-23T07:48:39.055Z,1011.23
2017-01-23T07:49:19.706Z,1011.21
2017-01-23T07:50:00.391Z,1011.19
2017-01-23T07:50:41.135Z,1011.2
2017-01-23T07:51:21.766Z,1011.24
2017-01-23T07:52:02.397Z,1011.21
2017-01-23T07:52:43.079Z,1011.27
2017-01-23T07:53:23.744Z,1011.19
2017-01-23T07:54:04.456Z,1011.24
2017-01-23T07:54:45.114Z,1011.27
2017-01-23T07:55:25.791Z,1011.25
2017-01-23T07:56:06.450Z,1011.26
2017-01-23T07:56:47.078Z,1011.29
2017-01-23T07:57:27.779Z,1011.27
2017-01-23T07:58:08.434Z,1011.28
2017-01-23T07:58:49.121Z,1011.32
2017-01-23T07:59:29.747Z,1011.28
2017-01-23T08:00:10.384Z,1011.3
2017-01-23T08:00:51.039Z,1011.27
2017-01-23T08:01:31.693Z,1011.29
2017-01-23T08:02:12.319Z,1011.31
2017-01-23T08:02:53.055Z,1011.26
2017-01-23T08:03:33.773Z,1011.27
2017-01-23T08:04:14.410Z,1011.37
2017-01-23T08:04:55.108Z,1011.35
2017-01-23T08:05:35.768Z,1011.29
2017-01-23T08:06:16.472Z,1011.35
2017-01-23T08:06:57.118Z,1011.34
2017-01-23T08:07:37.750Z,1011.37
2017-01-23T08:08:18.398Z,1011.33
2017-01-23T08:08:59.035Z,1011.38
2017-01-23T08:09:39.674Z,1011.43
2017-01-23T08:10:20.399Z,1011.41
2017-01-23T08:11:01.046Z,1011.33
2017-01-23T08:11:41.719Z,1011.34
2017-01-23T08:12:22.348Z,1011.4
2017-01-23T08:13:02.978Z,1011.39
2017-01-23T08:13:43.632Z,1011.4